createdAt,value
2023-03-07T00:00:32.682Z,6.20
2023-03-07T00:03:00.690Z,6.20
2023-03-07T00:05:29.300Z,6.20
2023-03-07T00:07:58.472Z,6.20
2023-03-07T00:10:26.974Z,6.20
2023-03-07T00:12:54.959Z,6.20
2023-03-07T00:15:23.704Z,6.20
2023-03-07T00:17:52.292Z,6.20
2023-03-07T00:20:20.795Z,6.20
2023-03-07T00:22:49.444Z,6.20
2023-03-07T00:25:17.367Z,6.20
2023-03-07T00:27:45.825Z,6.10
2023-03-07T00:30:13.967Z,6.00
2023-03-07T00:32:42.112Z,6.10
2023-03-07T00:35:10.363Z,6.10
2023-03-07T00:37:38.735Z,6.10
2023-03-07T00:40:09.455Z,6.10
2023-03-07T00:42:37.447Z,6.10
2023-03-07T00:45:06.454Z,6.10
2023-03-07T00:47:34.606Z,6.10
2023-03-07T00:50:04.394Z,6.20
2023-03-07T00:52:33.645Z,6.20
2023-03-07T00:55:02.286Z,6.10
2023-03-07T00:57:32.684Z,6.20
2023-03-07T01:00:00.844Z,6.30
2023-03-07T01:02:29.484Z,6.30
2023-03-07T01:04:57.486Z,6.30
2023-03-07T01:07:25.371Z,6.20
2023-03-07T01:09:54.202Z,6.20
2023-03-07T01:12:22.226Z,6.10
2023-03-07T01:14:51.429Z,6.10
2023-03-07T01:17:20.150Z,6.10
2023-03-07T01:19:48.033Z,6.10
2023-03-07T01:22:17.115Z,6.20
2023-03-07T01:24:46.151Z,6.30
2023-03-07T01:27:15.336Z,6.20
2023-03-07T01:29:43.424Z,6.10
2023-03-07T01:32:11.755Z,6.10
2023-03-07T01:34:40.515Z,6.10
2023-03-07T01:37:08.630Z,6.10
2023-03-07T01:39:36.794Z,6.20
2023-03-07T01:42:08.337Z,6.20
2023-03-07T01:45:27.596Z,6.30
2023-03-07T01:47:55.615Z,6.30
2023-03-07T01:50:23.940Z,6.30
2023-03-07T01:52:59.562Z,6.30
2023-03-07T01:55:32.030Z,6.20
2023-03-07T01:58:12.606Z,6.30
2023-03-07T02:00:43.458Z,6.30
2023-03-07T02:03:22.098Z,6.30
2023-03-07T02:05:53.767Z,6.40
2023-03-07T02:08:25.578Z,6.40
2023-03-07T02:10:55.037Z,6.40
2023-03-07T02:13:23.191Z,6.40
2023-03-07T02:15:52.171Z,6.40
2023-03-07T02:18:27.449Z,6.40
2023-03-07T02:21:14.503Z,6.30
2023-03-07T02:23:53.290Z,6.30
2023-03-07T02:26:31.000Z,6.40
2023-03-07T02:29:01.686Z,6.30
2023-03-07T02:31:31.658Z,6.30
2023-03-07T02:34:00.017Z,6.20
2023-03-07T02:36:33.664Z,6.20
2023-03-07T02:39:14.727Z,6.20
2023-03-07T02:41:43.545Z,6.30
2023-03-07T02:44:20.306Z,6.30
2023-03-07T02:46:49.263Z,6.20
2023-03-07T02:49:18.212Z,6.20
2023-03-07T02:51:46.241Z,6.20
2023-03-07T02:54:14.387Z,6.20
2023-03-07T02:56:42.619Z,6.10
2023-03-07T02:59:11.088Z,6.10
2023-03-07T03:01:39.203Z,6.20
2023-03-07T03:04:07.411Z,6.10
2023-03-07T03:06:36.703Z,6.10
2023-03-07T03:09:05.128Z,6.10
2023-03-07T03:11:33.832Z,6.10
2023-03-07T03:14:01.931Z,6.10
2023-03-07T03:16:30.978Z,6.10
2023-03-07T03:18:59.082Z,6.10
2023-03-07T03:21:27.639Z,6.10
2023-03-07T03:23:56.285Z,6.00
2023-03-07T03:26:25.002Z,5.90
2023-03-07T03:28:55.313Z,5.80
2023-03-07T03:31:24.976Z,5.80
2023-03-07T03:33:53.220Z,5.70
2023-03-07T03:36:25.732Z,5.70
2023-03-07T03:38:57.594Z,5.70
2023-03-07T03:41:27.173Z,5.60
2023-03-07T03:43:57.622Z,5.50
2023-03-07T03:46:27.107Z,5.50
2023-03-07T03:48:55.820Z,5.50
2023-03-07T03:51:27.154Z,5.50
2023-03-07T03:54:00.142Z,5.50
2023-03-07T03:56:29.772Z,5.60
2023-03-07T03:58:58.375Z,5.60
2023-03-07T04:01:28.554Z,5.70
2023-03-07T04:03:58.124Z,5.60
2023-03-07T04:06:28.384Z,5.60
2023-03-07T04:08:57.669Z,5.60
2023-03-07T04:11:26.242Z,5.60
2023-03-07T04:13:54.402Z,5.60
2023-03-07T04:16:23.755Z,5.70
2023-03-07T04:18:52.503Z,5.70
2023-03-07T04:21:21.782Z,5.60
2023-03-07T04:23:55.546Z,5.70
2023-03-07T04:26:25.358Z,5.60
2023-03-07T04:28:53.916Z,5.60
2023-03-07T04:31:34.195Z,5.60
2023-03-07T04:34:04.678Z,5.60
2023-03-07T04:36:33.968Z,5.60
2023-03-07T04:39:04.442Z,5.70
2023-03-07T04:41:33.671Z,5.70
2023-03-07T04:44:15.542Z,5.70
2023-03-07T04:46:44.328Z,5.80
2023-03-07T04:49:12.567Z,5.90
2023-03-07T04:51:43.959Z,5.90
2023-03-07T04:54:13.194Z,5.90
2023-03-07T04:56:42.459Z,6.00
2023-03-07T04:59:12.394Z,6.00
2023-03-07T05:01:40.855Z,5.90
2023-03-07T05:04:09.106Z,5.90
2023-03-07T05:06:38.445Z,5.90
2023-03-07T05:09:07.361Z,5.80
2023-03-07T05:11:35.454Z,5.80
2023-03-07T05:14:04.274Z,5.80
2023-03-07T05:16:33.732Z,5.80
2023-03-07T05:19:02.332Z,5.70
2023-03-07T05:21:32.261Z,5.60
2023-03-07T05:24:00.672Z,5.50
2023-03-07T05:26:30.023Z,5.40
2023-03-07T05:28:58.192Z,5.40
2023-03-07T05:31:26.581Z,5.40
2023-03-07T05:33:54.712Z,5.40
2023-03-07T05:36:23.173Z,5.40
2023-03-07T05:38:53.759Z,5.30
2023-03-07T05:41:47.061Z,5.20
2023-03-07T05:44:15.122Z,5.00
2023-03-07T05:46:43.124Z,5.00
2023-03-07T05:49:12.555Z,5.10
2023-03-07T05:51:41.168Z,5.00
2023-03-07T05:54:09.642Z,5.00
2023-03-07T05:56:38.200Z,5.00
2023-03-07T05:59:33.053Z,5.00
2023-03-07T06:02:01.078Z,5.10
2023-03-07T06:04:29.126Z,5.20
2023-03-07T06:06:57.757Z,5.20
2023-03-07T06:09:26.128Z,5.30
2023-03-07T06:11:56.089Z,5.50
2023-03-07T06:14:24.330Z,5.80
2023-03-07T06:16:52.379Z,6.00
2023-03-07T06:19:20.842Z,6.50
2023-03-07T06:21:50.035Z,6.90
2023-03-07T06:24:18.129Z,6.70
2023-03-07T06:26:46.200Z,6.50
2023-03-07T06:29:14.633Z,6.40
2023-03-07T06:31:42.842Z,6.40
2023-03-07T06:34:11.677Z,6.50
2023-03-07T06:36:40.717Z,6.90
2023-03-07T06:39:08.847Z,7.60
2023-03-07T06:41:37.245Z,8.20
2023-03-07T06:44:06.469Z,8.60
2023-03-07T06:46:34.971Z,9.10
2023-03-07T06:49:08.636Z,9.20
2023-03-07T06:51:40.249Z,9.20
2023-03-07T06:54:09.060Z,9.00
2023-03-07T06:56:37.341Z,8.80
2023-03-07T06:59:05.594Z,8.80
2023-03-07T07:01:35.710Z,8.70
2023-03-07T07:04:05.031Z,8.70
2023-03-07T07:06:33.129Z,8.60
2023-03-07T07:09:01.751Z,8.50
2023-03-07T07:11:34.996Z,8.30
2023-03-07T07:14:04.559Z,8.10
2023-03-07T07:16:34.010Z,7.90
2023-03-07T07:19:02.144Z,7.70
2023-03-07T07:21:30.198Z,7.60
2023-03-07T07:23:58.410Z,7.30
2023-03-07T07:26:27.148Z,7.00
2023-03-07T07:28:55.239Z,6.70
2023-03-07T07:31:23.330Z,6.60
2023-03-07T07:33:51.730Z,6.50
2023-03-07T07:36:22.842Z,6.60
2023-03-07T07:38:52.095Z,6.70
2023-03-07T07:41:20.357Z,6.80
2023-03-07T07:43:53.711Z,7.00
2023-03-07T07:46:33.795Z,7.20
2023-03-07T07:49:01.972Z,7.70
2023-03-07T07:51:30.100Z,7.80
2023-03-07T07:53:58.312Z,7.70
2023-03-07T07:56:26.538Z,7.70
2023-03-07T07:58:54.560Z,7.50
2023-03-07T08:01:25.253Z,7.50
2023-03-07T08:03:53.158Z,7.60
2023-03-07T08:06:23.732Z,7.80
2023-03-07T08:08:52.094Z,7.90
2023-03-07T08:11:20.950Z,8.10
2023-03-07T08:13:49.746Z,8.20
2023-03-07T08:16:21.090Z,8.30
2023-03-07T08:18:51.431Z,8.50
2023-03-07T08:21:19.599Z,8.50
2023-03-07T08:23:47.906Z,8.80
2023-03-07T08:26:17.696Z,9.20
2023-03-07T08:28:46.734Z,9.80
2023-03-07T08:31:17.503Z,10.00
2023-03-07T08:33:48.372Z,10.50
2023-03-07T08:36:16.957Z,11.20
2023-03-07T08:38:51.826Z,12.00
2023-03-07T08:41:22.570Z,12.00
2023-03-07T08:43:51.254Z,12.10
2023-03-07T08:46:19.327Z,12.30
2023-03-07T08:48:47.674Z,12.40
2023-03-07T08:51:17.927Z,12.60
2023-03-07T08:53:49.310Z,13.20
2023-03-07T08:56:19.113Z,13.70
2023-03-07T08:58:47.352Z,13.70
2023-03-07T09:01:15.442Z,13.10
2023-03-07T09:03:43.833Z,12.00
2023-03-07T09:06:20.463Z,12.30
2023-03-07T09:08:49.392Z,12.70
2023-03-07T09:11:18.755Z,13.50
2023-03-07T09:13:52.542Z,13.90
2023-03-07T09:16:22.165Z,13.60
2023-03-07T09:18:50.932Z,13.80
2023-03-07T09:21:19.630Z,14.10
2023-03-07T09:23:47.657Z,14.50
2023-03-07T09:26:16.326Z,14.70
2023-03-07T09:28:44.255Z,14.00
2023-03-07T09:31:15.278Z,14.30
2023-03-07T09:33:46.189Z,13.90
2023-03-07T09:36:15.964Z,13.30
2023-03-07T09:38:44.416Z,13.40
2023-03-07T09:42:00.639Z,13.40
2023-03-07T09:44:56.562Z,13.70
2023-03-07T09:48:04.967Z,13.20
2023-03-07T09:51:14.254Z,13.10
2023-03-07T09:53:46.389Z,13.20
2023-03-07T09:56:24.867Z,12.90
2023-03-07T09:59:08.492Z,13.60
2023-03-07T10:01:44.493Z,14.30
2023-03-07T10:04:21.985Z,14.50
2023-03-07T10:06:57.415Z,14.20
2023-03-07T10:09:26.728Z,14.60
2023-03-07T10:12:39.030Z,14.20
2023-03-07T10:15:33.224Z,14.80
2023-03-07T10:18:10.691Z,15.30
2023-03-07T10:21:01.124Z,15.60
2023-03-07T10:23:56.516Z,14.50
2023-03-07T10:26:35.161Z,13.50
2023-03-07T10:29:16.675Z,13.10
2023-03-07T10:32:25.317Z,13.60
2023-03-07T10:35:13.873Z,14.00
2023-03-07T10:37:52.188Z,14.30
2023-03-07T10:40:35.171Z,14.10
2023-03-07T10:43:04.965Z,13.90
2023-03-07T10:45:34.872Z,13.80
2023-03-07T10:48:15.773Z,14.30
2023-03-07T10:51:12.490Z,14.60
2023-03-07T10:53:40.802Z,14.50
2023-03-07T10:56:14.353Z,14.60
2023-03-07T10:59:06.098Z,14.50
2023-03-07T11:01:34.735Z,14.30
2023-03-07T11:04:07.417Z,14.40
2023-03-07T11:06:39.604Z,14.20
2023-03-07T11:09:23.368Z,14.20
2023-03-07T11:11:57.809Z,14.60
2023-03-07T11:14:29.515Z,14.40
2023-03-07T11:17:02.272Z,14.40
2023-03-07T11:19:36.458Z,14.60
2023-03-07T11:22:25.081Z,14.60
2023-03-07T11:25:19.346Z,14.90
2023-03-07T11:27:50.429Z,15.00
2023-03-07T11:30:30.097Z,15.10
2023-03-07T11:33:08.573Z,15.30
2023-03-07T11:35:55.533Z,14.70
2023-03-07T11:38:49.714Z,14.80
2023-03-07T11:41:26.423Z,14.60
2023-03-07T11:44:15.529Z,14.60
2023-03-07T11:47:07.371Z,14.70
2023-03-07T11:49:47.154Z,14.80
2023-03-07T11:52:26.928Z,15.00
2023-03-07T11:55:25.109Z,15.00
2023-03-07T11:57:53.015Z,14.80
2023-03-07T12:00:30.961Z,14.50
2023-03-07T12:03:17.163Z,14.20
2023-03-07T12:06:08.389Z,14.10
2023-03-07T12:09:00.107Z,14.30
2023-03-07T12:12:06.943Z,14.30
2023-03-07T12:14:59.995Z,14.30
2023-03-07T12:17:49.218Z,14.60
2023-03-07T12:20:28.856Z,14.60
2023-03-07T12:23:18.601Z,14.80
2023-03-07T12:25:51.907Z,14.90
2023-03-07T12:28:25.305Z,15.10
2023-03-07T12:31:09.113Z,15.00
2023-03-07T12:34:10.708Z,15.10
2023-03-07T12:37:03.500Z,15.10
2023-03-07T12:39:52.135Z,15.00
2023-03-07T12:42:32.081Z,14.90
2023-03-07T12:45:24.092Z,15.00
2023-03-07T12:48:30.428Z,14.90
2023-03-07T12:51:07.181Z,15.00
2023-03-07T12:53:55.129Z,14.90
2023-03-07T12:57:00.537Z,14.80
2023-03-07T12:59:29.957Z,14.40
2023-03-07T13:02:12.175Z,14.60
2023-03-07T13:04:42.827Z,14.30
2023-03-07T13:07:22.713Z,14.40
2023-03-07T13:09:54.029Z,14.50
2023-03-07T13:12:31.256Z,14.50
2023-03-07T13:15:00.612Z,14.10
2023-03-07T13:17:31.751Z,14.20
2023-03-07T13:20:28.413Z,14.30
2023-03-07T13:22:59.886Z,14.50
2023-03-07T13:25:44.974Z,14.50
2023-03-07T13:28:37.954Z,14.40
2023-03-07T13:31:21.328Z,14.20
2023-03-07T13:33:49.249Z,14.10
2023-03-07T13:36:35.996Z,14.00
2023-03-07T13:39:24.566Z,13.90
2023-03-07T13:41:52.520Z,14.00
2023-03-07T13:44:39.916Z,14.10
2023-03-07T13:47:43.319Z,14.20
2023-03-07T13:50:49.637Z,14.30
2023-03-07T13:53:22.874Z,14.20
2023-03-07T13:56:11.379Z,14.10
2023-03-07T13:59:00.950Z,14.10
2023-03-07T14:01:46.865Z,14.10
2023-03-07T14:04:41.567Z,14.10
2023-03-07T14:07:37.488Z,14.10
2023-03-07T14:10:22.730Z,14.00
2023-03-07T14:13:10.438Z,13.90
2023-03-07T14:16:10.419Z,13.90
2023-03-07T14:18:47.856Z,13.90
2023-03-07T14:21:50.922Z,13.80
2023-03-07T14:25:10.503Z,13.70
2023-03-07T14:28:19.932Z,13.70
2023-03-07T14:30:57.546Z,13.70
2023-03-07T14:33:36.235Z,13.70
2023-03-07T14:36:19.197Z,13.90
2023-03-07T14:38:48.890Z,14.10
2023-03-07T14:41:20.328Z,14.10
2023-03-07T14:44:25.865Z,13.90
2023-03-07T14:47:37.656Z,13.80
2023-03-07T14:50:25.555Z,13.80
2023-03-07T14:53:36.899Z,13.80
2023-03-07T14:56:08.772Z,13.80
2023-03-07T14:59:03.782Z,13.80
2023-03-07T15:01:43.234Z,13.90
2023-03-07T15:04:29.775Z,13.70
2023-03-07T15:07:04.706Z,13.80
2023-03-07T15:09:34.530Z,13.70
2023-03-07T15:12:21.365Z,13.40
2023-03-07T15:15:03.541Z,13.20
2023-03-07T15:17:46.778Z,13.00
2023-03-07T15:20:22.086Z,13.00
2023-03-07T15:22:51.350Z,12.80
2023-03-07T15:25:24.478Z,12.70
2023-03-07T15:28:04.440Z,12.60
2023-03-07T15:30:35.360Z,12.40
2023-03-07T15:33:21.660Z,12.50
2023-03-07T15:36:13.958Z,12.50
2023-03-07T15:38:51.210Z,12.40
2023-03-07T15:42:10.115Z,12.40
2023-03-07T15:44:38.717Z,12.40
2023-03-07T15:47:17.981Z,12.30
2023-03-07T15:49:56.121Z,12.20
2023-03-07T15:52:41.874Z,12.30
2023-03-07T15:55:25.687Z,12.20
2023-03-07T15:58:03.188Z,12.30
2023-03-07T16:00:40.475Z,12.30
2023-03-07T16:03:25.917Z,12.20
2023-03-07T16:05:54.931Z,12.10
2023-03-07T16:08:23.606Z,12.10
2023-03-07T16:11:03.951Z,12.00
2023-03-07T16:13:39.570Z,12.00
2023-03-07T16:16:12.992Z,11.90
2023-03-07T16:18:42.534Z,11.90
2023-03-07T16:21:21.803Z,11.80
2023-03-07T16:23:51.341Z,11.80
2023-03-07T16:26:22.083Z,11.80
2023-03-07T16:28:56.065Z,11.70
2023-03-07T16:31:24.109Z,11.70
2023-03-07T16:33:52.394Z,11.60
2023-03-07T16:36:24.319Z,11.60
2023-03-07T16:38:55.546Z,11.60
2023-03-07T16:41:23.545Z,11.50
2023-03-07T16:43:59.625Z,11.40
2023-03-07T16:46:32.419Z,11.30
2023-03-07T16:49:00.553Z,11.30
2023-03-07T16:51:31.217Z,11.20
2023-03-07T16:53:59.942Z,11.20
2023-03-07T16:56:42.098Z,11.00
2023-03-07T16:59:15.408Z,11.00
2023-03-07T17:01:49.922Z,10.90
2023-03-07T17:04:18.461Z,10.80
2023-03-07T17:06:50.594Z,10.80
2023-03-07T17:09:25.954Z,10.70
2023-03-07T17:11:54.051Z,10.60
2023-03-07T17:14:22.512Z,10.50
2023-03-07T17:16:51.120Z,10.60
2023-03-07T17:19:32.942Z,10.40
2023-03-07T17:22:02.518Z,10.40
2023-03-07T17:24:31.338Z,10.50
2023-03-07T17:27:03.768Z,10.50
2023-03-07T17:29:36.050Z,10.50
2023-03-07T17:32:04.415Z,10.50
2023-03-07T17:34:37.601Z,10.50
2023-03-07T17:37:06.336Z,10.50
2023-03-07T17:39:35.378Z,10.50
2023-03-07T17:42:04.614Z,10.40
2023-03-07T17:44:33.905Z,10.40
2023-03-07T17:47:02.922Z,10.40
2023-03-07T17:49:36.075Z,10.30
2023-03-07T17:52:06.445Z,10.30
2023-03-07T17:54:35.197Z,10.20
2023-03-07T17:57:04.120Z,10.10
2023-03-07T17:59:33.006Z,10.10
2023-03-07T18:02:01.770Z,10.10
2023-03-07T18:04:31.491Z,10.00
2023-03-07T18:07:00.603Z,10.00
2023-03-07T18:09:29.066Z,9.90
2023-03-07T18:11:57.866Z,9.80
2023-03-07T18:14:26.835Z,9.80
2023-03-07T18:16:54.928Z,9.80
2023-03-07T18:19:27.117Z,9.70
2023-03-07T18:21:55.729Z,9.70
2023-03-07T18:24:27.001Z,9.80
2023-03-07T18:26:56.066Z,9.80
2023-03-07T18:29:24.995Z,9.80
2023-03-07T18:31:53.714Z,9.80
2023-03-07T18:34:23.895Z,9.70
2023-03-07T18:36:53.104Z,9.70
2023-03-07T18:39:23.348Z,9.60
2023-03-07T18:41:51.662Z,9.50
2023-03-07T18:44:19.886Z,9.50
2023-03-07T18:46:48.932Z,9.50
2023-03-07T18:49:17.931Z,9.50
2023-03-07T18:51:46.224Z,9.40
2023-03-07T18:54:14.997Z,9.50
2023-03-07T18:56:46.975Z,9.50
2023-03-07T18:59:17.465Z,9.50
2023-03-07T19:01:50.242Z,9.50
2023-03-07T19:04:19.024Z,9.40
2023-03-07T19:06:48.323Z,9.40
2023-03-07T19:09:19.796Z,9.40
2023-03-07T19:11:48.826Z,9.40
2023-03-07T19:14:17.085Z,9.40
2023-03-07T19:16:45.341Z,9.30
2023-03-07T19:19:13.433Z,9.40
2023-03-07T19:21:42.117Z,9.40
2023-03-07T19:24:12.212Z,9.30
2023-03-07T19:26:42.847Z,9.20
2023-03-07T19:29:12.976Z,9.20
2023-03-07T19:31:44.050Z,9.20
2023-03-07T19:34:13.256Z,9.20
2023-03-07T19:36:41.864Z,9.10
2023-03-07T19:39:15.053Z,9.00
2023-03-07T19:41:50.268Z,8.90
2023-03-07T19:44:18.759Z,8.90
2023-03-07T19:46:47.340Z,9.00
2023-03-07T19:49:16.623Z,9.00
2023-03-07T19:51:44.627Z,9.00
2023-03-07T19:54:14.545Z,9.00
2023-03-07T19:56:45.621Z,9.10
2023-03-07T19:59:13.752Z,9.00
2023-03-07T20:01:42.135Z,8.90
2023-03-07T20:04:13.446Z,9.00
2023-03-07T20:06:42.517Z,9.00
2023-03-07T20:09:12.976Z,9.00
2023-03-07T20:11:45.514Z,9.10
2023-03-07T20:14:13.903Z,9.00
2023-03-07T20:16:41.872Z,9.00
2023-03-07T20:19:10.831Z,9.00
2023-03-07T20:21:40.496Z,9.00
2023-03-07T20:24:08.830Z,9.00
2023-03-07T20:26:38.345Z,8.90
2023-03-07T20:29:08.685Z,8.80
2023-03-07T20:31:39.336Z,8.80
2023-03-07T20:34:08.904Z,8.80
2023-03-07T20:36:38.628Z,8.80
2023-03-07T20:39:09.118Z,8.80
2023-03-07T20:41:37.249Z,8.80
2023-03-07T20:44:07.747Z,8.70
2023-03-07T20:46:37.829Z,8.80
2023-03-07T20:49:06.323Z,8.80
2023-03-07T20:51:36.474Z,8.80
2023-03-07T20:54:12.432Z,8.80
2023-03-07T20:56:41.553Z,8.80
2023-03-07T20:59:16.708Z,8.70
2023-03-07T21:01:45.053Z,8.70
2023-03-07T21:04:17.685Z,8.80
2023-03-07T21:06:47.444Z,8.80
2023-03-07T21:09:17.086Z,8.90
2023-03-07T21:11:49.045Z,8.80
2023-03-07T21:14:19.394Z,8.80
2023-03-07T21:16:47.570Z,8.80
2023-03-07T21:19:16.477Z,8.70
2023-03-07T21:21:45.647Z,8.70
2023-03-07T21:24:15.745Z,8.70
2023-03-07T21:26:44.000Z,8.70
2023-03-07T21:29:13.870Z,8.70
2023-03-07T21:31:42.049Z,8.70
2023-03-07T21:34:13.756Z,8.70
2023-03-07T21:36:42.092Z,8.80
2023-03-07T21:39:11.474Z,8.80
2023-03-07T21:41:40.072Z,8.80
2023-03-07T21:44:09.808Z,8.80
2023-03-07T21:46:38.079Z,8.70
2023-03-07T21:49:06.930Z,8.60
2023-03-07T21:51:35.356Z,8.60
2023-03-07T21:54:03.408Z,8.70
2023-03-07T21:56:31.800Z,8.70
2023-03-07T21:58:59.722Z,8.80
2023-03-07T22:01:29.203Z,8.90
2023-03-07T22:03:59.334Z,8.90
2023-03-07T22:06:28.729Z,8.90
2023-03-07T22:09:00.155Z,8.90
2023-03-07T22:11:28.341Z,9.00
2023-03-07T22:13:56.430Z,9.00
2023-03-07T22:16:24.700Z,9.00
2023-03-07T22:18:55.124Z,9.10
2023-03-07T22:21:26.275Z,9.10
2023-03-07T22:24:00.792Z,9.00
2023-03-07T22:26:30.667Z,9.00
2023-03-07T22:28:59.264Z,8.90
2023-03-07T22:31:28.329Z,8.90
2023-03-07T22:33:57.867Z,8.90
2023-03-07T22:36:26.206Z,8.90
2023-03-07T22:38:55.849Z,8.90
2023-03-07T22:41:24.906Z,8.90
2023-03-07T22:43:52.899Z,8.90
2023-03-07T22:46:21.165Z,8.90
2023-03-07T22:48:52.981Z,8.80
2023-03-07T22:51:22.840Z,8.80
2023-03-07T22:53:50.925Z,8.80
2023-03-07T22:56:28.165Z,8.90
2023-03-07T22:58:56.521Z,9.00
2023-03-07T23:01:27.276Z,9.00
2023-03-07T23:03:57.649Z,8.80
2023-03-07T23:06:29.084Z,8.80
2023-03-07T23:08:59.666Z,8.80
2023-03-07T23:11:30.505Z,8.80
2023-03-07T23:13:58.803Z,8.90
2023-03-07T23:16:29.688Z,8.80
2023-03-07T23:18:59.341Z,8.70
2023-03-07T23:21:30.116Z,8.60
2023-03-07T23:23:59.331Z,8.50
2023-03-07T23:26:33.269Z,8.40
2023-03-07T23:29:01.806Z,8.30
2023-03-07T23:31:32.941Z,8.40
2023-03-07T23:34:03.924Z,8.40
2023-03-07T23:36:33.727Z,8.40
2023-03-07T23:39:02.197Z,8.30
2023-03-07T23:41:30.188Z,8.30
2023-03-07T23:43:59.926Z,8.40
2023-03-07T23:46:28.912Z,8.50
2023-03-07T23:48:57.080Z,8.50
2023-03-07T23:51:25.433Z,8.50
2023-03-07T23:53:53.852Z,8.50
2023-03-07T23:56:22.325Z,8.50
2023-03-07T23:58:51.696Z,8.50
